sensor_id;sensor_type;location;lat;lon;timestamp;pressure;altitude;pressure_sealevel;temperature;humidity
78407;BME280;67692;51.074;-1.790;2023-12-20T00:01:06;101824.97;;;6.67;100.00
78407;BME280;67692;51.074;-1.790;2023-12-20T00:03:33;101825.84;;;6.66;100.00
78407;BME280;67692;51.074;-1.790;2023-12-20T00:05:59;101828.50;;;6.63;100.00
78407;BME280;67692;51.074;-1.790;2023-12-20T00:08:26;101834.59;;;6.61;100.00
78407;BME280;67692;51.074;-1.790;2023-12-20T00:10:54;101845.00;;;6.57;100.00
78407;BME280;67692;51.074;-1.790;2023-12-20T00:13:20;101845.00;;;6.57;100.00
78407;BME280;67692;51.074;-1.790;2023-12-20T00:15:47;101849.31;;;6.57;100.00
78407;BME280;67692;51.074;-1.790;2023-12-20T00:18:13;101841.75;;;6.52;100.00
78407;BME280;67692;51.074;-1.790;2023-12-20T00:20:40;101832.44;;;6.48;100.00
78407;BME280;67692;51.074;-1.790;2023-12-20T00:23:07;101833.22;;;6.50;100.00
78407;BME280;67692;51.074;-1.790;2023-12-20T00:25:34;101830.63;;;6.52;100.00
78407;BME280;67692;51.074;-1.790;2023-12-20T00:28:02;101825.56;;;6.49;100.00
78407;BME280;67692;51.074;-1.790;2023-12-20T00:30:29;101821.19;;;6.52;100.00
78407;BME280;67692;51.074;-1.790;2023-12-20T00:32:56;101818.53;;;6.54;100.00
78407;BME280;67692;51.074;-1.790;2023-12-20T00:35:22;101815.91;;;6.55;100.00
78407;BME280;67692;51.074;-1.790;2023-12-20T00:37:49;101809.81;;;6.58;100.00
78407;BME280;67692;51.074;-1.790;2023-12-20T00:40:16;101820.06;;;6.60;100.00
78407;BME280;67692;51.074;-1.790;2023-12-20T00:42:43;101821.91;;;6.56;100.00
78407;BME280;67692;51.074;-1.790;2023-12-20T00:45:11;101815.09;;;6.55;100.00
78407;BME280;67692;51.074;-1.790;2023-12-20T00:47:37;101812.63;;;6.52;100.00
78407;BME280;67692;51.074;-1.790;2023-12-20T00:50:05;101810.41;;;6.41;100.00
78407;BME280;67692;51.074;-1.790;2023-12-20T00:52:32;101810.47;;;6.40;100.00
78407;BME280;67692;51.074;-1.790;2023-12-20T00:54:58;101807.94;;;6.38;100.00
78407;BME280;67692;51.074;-1.790;2023-12-20T00:57:25;101798.78;;;6.30;100.00
78407;BME280;67692;51.074;-1.790;2023-12-20T00:59:52;101798.06;;;6.26;100.00
78407;BME280;67692;51.074;-1.790;2023-12-20T01:02:20;101791.34;;;6.20;100.00
78407;BME280;67692;51.074;-1.790;2023-12-20T01:04:46;101788.09;;;6.15;100.00
78407;BME280;67692;51.074;-1.790;2023-12-20T01:07:13;101776.31;;;6.10;100.00
78407;BME280;67692;51.074;-1.790;2023-12-20T01:09:39;101778.72;;;6.14;100.00
78407;BME280;67692;51.074;-1.790;2023-12-20T01:12:06;101781.44;;;6.10;100.00
78407;BME280;67692;51.074;-1.790;2023-12-20T01:14:33;101772.91;;;6.09;100.00
78407;BME280;67692;51.074;-1.790;2023-12-20T01:16:59;101770.38;;;6.08;100.00
78407;BME280;67692;51.074;-1.790;2023-12-20T01:19:27;101779.66;;;6.12;100.00
78407;BME280;67692;51.074;-1.790;2023-12-20T01:21:55;101778.59;;;6.17;100.00
78407;BME280;67692;51.074;-1.790;2023-12-20T01:24:21;101780.03;;;6.26;100.00
78407;BME280;67692;51.074;-1.790;2023-12-20T01:26:48;101787.72;;;6.28;100.00
78407;BME280;67692;51.074;-1.790;2023-12-20T01:29:15;101788.28;;;6.36;100.00
78407;BME280;67692;51.074;-1.790;2023-12-20T01:31:41;101788.19;;;6.39;100.00
78407;BME280;67692;51.074;-1.790;2023-12-20T01:34:08;101791.44;;;6.44;100.00
78407;BME280;67692;51.074;-1.790;2023-12-20T01:36:36;101792.28;;;6.44;100.00
78407;BME280;67692;51.074;-1.790;2023-12-20T01:39:03;101791.22;;;6.50;100.00
78407;BME280;67692;51.074;-1.790;2023-12-20T01:41:29;101792.94;;;6.51;100.00
78407;BME280;67692;51.074;-1.790;2023-12-20T01:43:56;101791.91;;;6.55;100.00
78407;BME280;67692;51.074;-1.790;2023-12-20T01:46:22;101792.81;;;6.54;100.00
78407;BME280;67692;51.074;-1.790;2023-12-20T01:48:49;101788.47;;;6.56;100.00
78407;BME280;67692;51.074;-1.790;2023-12-20T01:51:16;101795.84;;;6.65;100.00
78407;BME280;67692;51.074;-1.790;2023-12-20T01:53:45;101791.44;;;6.69;100.00
78407;BME280;67692;51.074;-1.790;2023-12-20T01:56:13;101792.13;;;6.74;100.00
78407;BME280;67692;51.074;-1.790;2023-12-20T01:58:43;101784.28;;;6.77;100.00
78407;BME280;67692;51.074;-1.790;2023-12-20T02:01:11;101775.47;;;6.84;100.00
78407;BME280;67692;51.074;-1.790;2023-12-20T02:03:38;101781.31;;;6.88;100.00
78407;BME280;67692;51.074;-1.790;2023-12-20T02:06:05;101785.81;;;6.82;99.91
78407;BME280;67692;51.074;-1.790;2023-12-20T02:08:32;101777.25;;;6.82;99.39
78407;BME280;67692;51.074;-1.790;2023-12-20T02:11:00;101791.81;;;6.83;99.66
78407;BME280;67692;51.074;-1.790;2023-12-20T02:13:27;101786.59;;;6.84;99.83
78407;BME280;67692;51.074;-1.790;2023-12-20T02:15:54;101795.41;;;6.77;99.13
78407;BME280;67692;51.074;-1.790;2023-12-20T02:18:21;101786.75;;;6.80;100.00
78407;BME280;67692;51.074;-1.790;2023-12-20T02:20:48;101771.16;;;6.84;100.00
78407;BME280;67692;51.074;-1.790;2023-12-20T02:23:16;101772.16;;;6.80;100.00
78407;BME280;67692;51.074;-1.790;2023-12-20T02:25:43;101776.50;;;6.78;98.88
78407;BME280;67692;51.074;-1.790;2023-12-20T02:28:09;101779.88;;;6.80;99.51
78407;BME280;67692;51.074;-1.790;2023-12-20T02:30:36;101772.94;;;6.82;100.00
78407;BME280;67692;51.074;-1.790;2023-12-20T02:33:03;101782.06;;;6.91;100.00
78407;BME280;67692;51.074;-1.790;2023-12-20T02:35:34;101783.00;;;6.89;100.00
78407;BME280;67692;51.074;-1.790;2023-12-20T02:38:00;101775.84;;;6.97;100.00
78407;BME280;67692;51.074;-1.790;2023-12-20T02:40:28;101781.00;;;6.97;100.00
78407;BME280;67692;51.074;-1.790;2023-12-20T02:42:55;101776.78;;;6.94;100.00
78407;BME280;67692;51.074;-1.790;2023-12-20T02:45:21;101777.66;;;6.95;100.00
78407;BME280;67692;51.074;-1.790;2023-12-20T02:47:48;101783.59;;;6.97;100.00
78407;BME280;67692;51.074;-1.790;2023-12-20T02:50:15;101770.59;;;7.00;100.00
78407;BME280;67692;51.074;-1.790;2023-12-20T02:55:10;101764.25;;;7.08;100.00
78407;BME280;67692;51.074;-1.790;2023-12-20T02:57:38;101761.97;;;7.01;99.04
78407;BME280;67692;51.074;-1.790;2023-12-20T03:00:07;101760.28;;;7.00;99.45
78407;BME280;67692;51.074;-1.790;2023-12-20T03:02:34;101748.13;;;7.03;100.00
78407;BME280;67692;51.074;-1.790;2023-12-20T03:05:01;101758.38;;;7.05;99.64
78407;BME280;67692;51.074;-1.790;2023-12-20T03:07:28;101748.78;;;7.08;99.33
78407;BME280;67692;51.074;-1.790;2023-12-20T03:09:55;101753.47;;;6.99;99.45
78407;BME280;67692;51.074;-1.790;2023-12-20T03:12:21;101745.38;;;7.08;100.00
78407;BME280;67692;51.074;-1.790;2023-12-20T03:14:49;101737.56;;;7.11;100.00
78407;BME280;67692;51.074;-1.790;2023-12-20T03:17:16;101737.44;;;7.14;100.00
78407;BME280;67692;51.074;-1.790;2023-12-20T03:19:43;101742.66;;;7.12;99.26
78407;BME280;67692;51.074;-1.790;2023-12-20T03:22:09;101741.94;;;7.09;98.24
78407;BME280;67692;51.074;-1.790;2023-12-20T03:24:36;101739.34;;;7.09;100.00
78407;BME280;67692;51.074;-1.790;2023-12-20T03:27:03;101752.06;;;7.13;100.00
78407;BME280;67692;51.074;-1.790;2023-12-20T03:29:30;101752.25;;;7.09;98.96
78407;BME280;67692;51.074;-1.790;2023-12-20T03:31:58;101757.31;;;7.10;98.60
78407;BME280;67692;51.074;-1.790;2023-12-20T03:34:24;101757.38;;;7.09;99.38
78407;BME280;67692;51.074;-1.790;2023-12-20T03:36:51;101764.38;;;7.05;99.63
78407;BME280;67692;51.074;-1.790;2023-12-20T03:39:17;101755.66;;;7.09;100.00
78407;BME280;67692;51.074;-1.790;2023-12-20T03:41:44;101758.16;;;7.11;99.49
78407;BME280;67692;51.074;-1.790;2023-12-20T03:44:11;101756.38;;;7.13;99.49
78407;BME280;67692;51.074;-1.790;2023-12-20T03:46:37;101757.91;;;7.17;100.00
78407;BME280;67692;51.074;-1.790;2023-12-20T03:49:05;101754.56;;;7.15;99.40
78407;BME280;67692;51.074;-1.790;2023-12-20T03:51:32;101755.91;;;7.25;100.00
78407;BME280;67692;51.074;-1.790;2023-12-20T03:53:58;101752.44;;;7.26;99.61
78407;BME280;67692;51.074;-1.790;2023-12-20T03:56:25;101748.34;;;7.21;99.19
78407;BME280;67692;51.074;-1.790;2023-12-20T03:58:52;101748.28;;;7.22;99.76
78407;BME280;67692;51.074;-1.790;2023-12-20T04:01:18;101741.34;;;7.24;100.00
78407;BME280;67692;51.074;-1.790;2023-12-20T04:03:45;101750.81;;;7.24;100.00
78407;BME280;67692;51.074;-1.790;2023-12-20T04:06:17;101752.50;;;7.25;100.00
78407;BME280;67692;51.074;-1.790;2023-12-20T04:08:44;101752.66;;;7.20;100.00
78407;BME280;67692;51.074;-1.790;2023-12-20T04:11:10;101737.31;;;7.17;100.00
78407;BME280;67692;51.074;-1.790;2023-12-20T04:13:37;101734.75;;;7.17;100.00
78407;BME280;67692;51.074;-1.790;2023-12-20T04:16:04;101736.47;;;7.16;99.92
78407;BME280;67692;51.074;-1.790;2023-12-20T04:18:31;101739.91;;;7.17;99.97
78407;BME280;67692;51.074;-1.790;2023-12-20T04:20:57;101743.31;;;7.18;100.00
78407;BME280;67692;51.074;-1.790;2023-12-20T04:23:25;101740.72;;;7.18;100.00
78407;BME280;67692;51.074;-1.790;2023-12-20T04:25:53;101735.53;;;7.19;100.00
78407;BME280;67692;51.074;-1.790;2023-12-20T04:28:19;101733.97;;;7.15;99.75
78407;BME280;67692;51.074;-1.790;2023-12-20T04:30:46;101731.31;;;7.16;100.00
78407;BME280;67692;51.074;-1.790;2023-12-20T04:33:13;101723.78;;;7.12;100.00
78407;BME280;67692;51.074;-1.790;2023-12-20T04:35:39;101718.50;;;7.15;100.00
78407;BME280;67692;51.074;-1.790;2023-12-20T04:38:08;101717.59;;;7.16;100.00
78407;BME280;67692;51.074;-1.790;2023-12-20T04:40:36;101720.91;;;7.20;100.00
78407;BME280;67692;51.074;-1.790;2023-12-20T04:43:03;101725.09;;;7.22;100.00
78407;BME280;67692;51.074;-1.790;2023-12-20T04:45:30;101722.56;;;7.21;100.00
78407;BME280;67692;51.074;-1.790;2023-12-20T04:47:56;101731.91;;;7.23;100.00
78407;BME280;67692;51.074;-1.790;2023-12-20T04:50:23;101725.09;;;7.22;100.00
78407;BME280;67692;51.074;-1.790;2023-12-20T04:52:50;101727.38;;;7.30;100.00
78407;BME280;67692;51.074;-1.790;2023-12-20T04:55:17;101726.53;;;7.29;100.00
78407;BME280;67692;51.074;-1.790;2023-12-20T04:57:45;101725.66;;;7.30;100.00
78407;BME280;67692;51.074;-1.790;2023-12-20T05:00:12;101726.41;;;7.32;100.00
78407;BME280;67692;51.074;-1.790;2023-12-20T05:02:40;101729.00;;;7.32;100.00
78407;BME280;67692;51.074;-1.790;2023-12-20T05:05:08;101726.97;;;7.40;100.00
78407;BME280;67692;51.074;-1.790;2023-12-20T05:07:34;101734.59;;;7.43;100.00
78407;BME280;67692;51.074;-1.790;2023-12-20T05:10:02;101731.69;;;7.51;100.00
78407;BME280;67692;51.074;-1.790;2023-12-20T05:12:29;101733.97;;;7.59;100.00
78407;BME280;67692;51.074;-1.790;2023-12-20T05:14:58;101738.94;;;7.63;100.00
78407;BME280;67692;51.074;-1.790;2023-12-20T05:17:24;101740.53;;;7.67;100.00
78407;BME280;67692;51.074;-1.790;2023-12-20T05:19:51;101745.34;;;7.75;100.00
78407;BME280;67692;51.074;-1.790;2023-12-20T05:22:18;101740.00;;;7.80;100.00
78407;BME280;67692;51.074;-1.790;2023-12-20T05:24:45;101748.34;;;7.86;100.00
78407;BME280;67692;51.074;-1.790;2023-12-20T05:27:12;101745.63;;;7.89;100.00
78407;BME280;67692;51.074;-1.790;2023-12-20T05:29:39;101744.72;;;7.90;100.00
78407;BME280;67692;51.074;-1.790;2023-12-20T05:32:07;101730.94;;;7.91;100.00
78407;BME280;67692;51.074;-1.790;2023-12-20T05:34:33;101722.06;;;7.98;100.00
78407;BME280;67692;51.074;-1.790;2023-12-20T05:37:00;101708.25;;;7.99;100.00
78407;BME280;67692;51.074;-1.790;2023-12-20T05:39:28;101703.94;;;8.00;100.00
78407;BME280;67692;51.074;-1.790;2023-12-20T05:41:56;101698.78;;;8.00;100.00
78407;BME280;67692;51.074;-1.790;2023-12-20T05:44:23;101691.88;;;8.00;100.00
78407;BME280;67692;51.074;-1.790;2023-12-20T05:46:49;101700.59;;;7.98;100.00
78407;BME280;67692;51.074;-1.790;2023-12-20T05:49:17;101696.97;;;8.02;100.00
78407;BME280;67692;51.074;-1.790;2023-12-20T05:51:44;101696.13;;;8.01;100.00
78407;BME280;67692;51.074;-1.790;2023-12-20T05:54:11;101685.81;;;8.01;100.00
78407;BME280;67692;51.074;-1.790;2023-12-20T05:56:37;101685.13;;;7.98;100.00
78407;BME280;67692;51.074;-1.790;2023-12-20T05:59:04;101680.78;;;7.98;100.00
78407;BME280;67692;51.074;-1.790;2023-12-20T06:01:31;101688.59;;;7.97;100.00
78407;BME280;67692;51.074;-1.790;2023-12-20T06:03:57;101689.44;;;7.97;100.00
78407;BME280;67692;51.074;-1.790;2023-12-20T06:06:25;101681.81;;;7.94;100.00
78407;BME280;67692;51.074;-1.790;2023-12-20T06:08:52;101684.38;;;7.94;100.00
78407;BME280;67692;51.074;-1.790;2023-12-20T06:11:18;101692.94;;;7.95;100.00
78407;BME280;67692;51.074;-1.790;2023-12-20T06:13:45;101682.13;;;7.87;100.00
78407;BME280;67692;51.074;-1.790;2023-12-20T06:16:12;101674.41;;;7.87;100.00
78407;BME280;67692;51.074;-1.790;2023-12-20T06:18:39;101650.72;;;7.77;100.00
78407;BME280;67692;51.074;-1.790;2023-12-20T06:21:06;101679.88;;;7.79;100.00
78407;BME280;67692;51.074;-1.790;2023-12-20T06:23:35;101668.72;;;7.79;100.00
78407;BME280;67692;51.074;-1.790;2023-12-20T06:26:01;101687.88;;;7.73;100.00
78407;BME280;67692;51.074;-1.790;2023-12-20T06:28:28;101678.47;;;7.72;99.67
78407;BME280;67692;51.074;-1.790;2023-12-20T06:30:55;101685.22;;;7.74;100.00
78407;BME280;67692;51.074;-1.790;2023-12-20T06:33:22;101697.41;;;7.71;99.92
78407;BME280;67692;51.074;-1.790;2023-12-20T06:35:49;101692.06;;;7.75;99.67
78407;BME280;67692;51.074;-1.790;2023-12-20T06:38:19;101693.03;;;7.73;99.62
78407;BME280;67692;51.074;-1.790;2023-12-20T06:40:47;101709.13;;;7.78;100.00
78407;BME280;67692;51.074;-1.790;2023-12-20T06:43:13;101702.13;;;7.82;100.00
78407;BME280;67692;51.074;-1.790;2023-12-20T06:45:40;101707.16;;;7.85;100.00
78407;BME280;67692;51.074;-1.790;2023-12-20T06:48:07;101696.63;;;7.89;100.00
78407;BME280;67692;51.074;-1.790;2023-12-20T06:50:34;101694.00;;;7.91;100.00
78407;BME280;67692;51.074;-1.790;2023-12-20T06:53:05;101683.75;;;7.89;100.00
78407;BME280;67692;51.074;-1.790;2023-12-20T06:55:32;101674.19;;;7.91;100.00
78407;BME280;67692;51.074;-1.790;2023-12-20T06:58:01;101683.63;;;7.92;100.00
78407;BME280;67692;51.074;-1.790;2023-12-20T07:00:27;101685.41;;;7.90;100.00
78407;BME280;67692;51.074;-1.790;2023-12-20T07:02:54;101679.44;;;7.90;100.00
78407;BME280;67692;51.074;-1.790;2023-12-20T07:05:21;101683.88;;;7.86;100.00
78407;BME280;67692;51.074;-1.790;2023-12-20T07:07:48;101685.41;;;7.90;100.00
78407;BME280;67692;51.074;-1.790;2023-12-20T07:10:14;101688.84;;;7.91;100.00
78407;BME280;67692;51.074;-1.790;2023-12-20T07:12:41;101687.44;;;7.84;100.00
78407;BME280;67692;51.074;-1.790;2023-12-20T07:15:09;101676.97;;;7.87;100.00
78407;BME280;67692;51.074;-1.790;2023-12-20T07:17:37;101666.59;;;7.88;100.00
78407;BME280;67692;51.074;-1.790;2023-12-20T07:20:05;101660.81;;;7.83;100.00
78407;BME280;67692;51.074;-1.790;2023-12-20T07:22:35;101656.34;;;7.87;100.00
78407;BME280;67692;51.074;-1.790;2023-12-20T07:25:01;101645.13;;;7.88;100.00
78407;BME280;67692;51.074;-1.790;2023-12-20T07:27:29;101635.78;;;7.85;100.00
78407;BME280;67692;51.074;-1.790;2023-12-20T07:29:55;101644.22;;;7.89;100.00
78407;BME280;67692;51.074;-1.790;2023-12-20T07:32:23;101640.69;;;7.91;100.00
78407;BME280;67692;51.074;-1.790;2023-12-20T07:34:50;101636.34;;;7.92;100.00
78407;BME280;67692;51.074;-1.790;2023-12-20T07:37:17;101636.28;;;7.93;100.00
78407;BME280;67692;51.074;-1.790;2023-12-20T07:39:43;101641.59;;;7.90;100.00
78407;BME280;67692;51.074;-1.790;2023-12-20T07:42:10;101643.13;;;7.94;100.00
78407;BME280;67692;51.074;-1.790;2023-12-20T07:44:36;101642.22;;;7.95;100.00
78407;BME280;67692;51.074;-1.790;2023-12-20T07:47:04;101642.09;;;7.98;100.00
78407;BME280;67692;51.074;-1.790;2023-12-20T07:49:32;101660.94;;;8.00;100.00
78407;BME280;67692;51.074;-1.790;2023-12-20T07:51:59;101667.69;;;8.03;100.00
78407;BME280;67692;51.074;-1.790;2023-12-20T07:54:25;101652.28;;;8.01;100.00
78407;BME280;67692;51.074;-1.790;2023-12-20T07:56:52;101654.72;;;8.04;100.00
78407;BME280;67692;51.074;-1.790;2023-12-20T07:59:18;101654.72;;;8.04;100.00
78407;BME280;67692;51.074;-1.790;2023-12-20T08:01:45;101650.19;;;8.10;100.00
78407;BME280;67692;51.074;-1.790;2023-12-20T08:04:12;101666.47;;;8.12;100.00
78407;BME280;67692;51.074;-1.790;2023-12-20T08:06:40;101670.66;;;8.14;100.00
78407;BME280;67692;51.074;-1.790;2023-12-20T08:09:06;101671.34;;;8.18;100.00
78407;BME280;67692;51.074;-1.790;2023-12-20T08:11:33;101664.38;;;8.20;100.00
78407;BME280;67692;51.074;-1.790;2023-12-20T08:14:00;101676.97;;;8.27;100.00
78407;BME280;67692;51.074;-1.790;2023-12-20T08:16:26;101687.91;;;8.32;100.00
78407;BME280;67692;51.074;-1.790;2023-12-20T08:18:53;101693.75;;;8.38;100.00
78407;BME280;67692;51.074;-1.790;2023-12-20T08:21:19;101689.16;;;8.44;100.00
78407;BME280;67692;51.074;-1.790;2023-12-20T08:23:49;101691.53;;;8.49;100.00
78407;BME280;67692;51.074;-1.790;2023-12-20T08:26:18;101701.66;;;8.53;100.00
78407;BME280;67692;51.074;-1.790;2023-12-20T08:28:45;101706.88;;;8.52;100.00
78407;BME280;67692;51.074;-1.790;2023-12-20T08:31:14;101701.66;;;8.53;100.00
78407;BME280;67692;51.074;-1.790;2023-12-20T08:33:40;101702.56;;;8.52;100.00
78407;BME280;67692;51.074;-1.790;2023-12-20T08:36:07;101699.06;;;8.53;100.00
78407;BME280;67692;51.074;-1.790;2023-12-20T08:38:34;101703.75;;;8.64;100.00
78407;BME280;67692;51.074;-1.790;2023-12-20T08:41:03;101697.84;;;8.62;100.00
78407;BME280;67692;51.074;-1.790;2023-12-20T08:43:30;101698.66;;;8.62;100.00
78407;BME280;67692;51.074;-1.790;2023-12-20T08:45:57;101694.47;;;8.60;100.00
78407;BME280;67692;51.074;-1.790;2023-12-20T08:48:24;101685.75;;;8.62;100.00
78407;BME280;67692;51.074;-1.790;2023-12-20T08:50:50;101688.19;;;8.65;100.00
78407;BME280;67692;51.074;-1.790;2023-12-20T08:53:17;101679.69;;;8.63;100.00
78407;BME280;67692;51.074;-1.790;2023-12-20T08:55:44;101684.72;;;8.67;100.00
78407;BME280;67692;51.074;-1.790;2023-12-20T08:58:12;101682.41;;;8.60;100.00
78407;BME280;67692;51.074;-1.790;2023-12-20T09:00:39;101698.81;;;8.59;100.00
78407;BME280;67692;51.074;-1.790;2023-12-20T09:03:06;101696.22;;;8.59;100.00
78407;BME280;67692;51.074;-1.790;2023-12-20T09:05:32;101688.47;;;8.59;100.00
78407;BME280;67692;51.074;-1.790;2023-12-20T09:07:59;101688.28;;;8.64;100.00
78407;BME280;67692;51.074;-1.790;2023-12-20T09:10:25;101687.38;;;8.65;100.00
78407;BME280;67692;51.074;-1.790;2023-12-20T09:12:54;101681.34;;;8.64;100.00
78407;BME280;67692;51.074;-1.790;2023-12-20T09:15:24;101681.09;;;8.71;100.00
78407;BME280;67692;51.074;-1.790;2023-12-20T09:17:51;101677.47;;;8.75;100.00
78407;BME280;67692;51.074;-1.790;2023-12-20T09:20:18;101676.47;;;8.77;100.00
78407;BME280;67692;51.074;-1.790;2023-12-20T09:22:44;101678.84;;;8.82;100.00
78407;BME280;67692;51.074;-1.790;2023-12-20T09:25:11;101678.84;;;8.82;100.00
78407;BME280;67692;51.074;-1.790;2023-12-20T09:27:39;101678.59;;;8.88;100.00
78407;BME280;67692;51.074;-1.790;2023-12-20T09:30:06;101678.38;;;8.92;100.00
78407;BME280;67692;51.074;-1.790;2023-12-20T09:32:34;101673.69;;;9.01;100.00
78407;BME280;67692;51.074;-1.790;2023-12-20T09:35:01;101683.88;;;9.04;100.00
78407;BME280;67692;51.074;-1.790;2023-12-20T09:37:28;101692.47;;;9.04;100.00
78407;BME280;67692;51.074;-1.790;2023-12-20T09:39:55;101686.38;;;9.05;100.00
78407;BME280;67692;51.074;-1.790;2023-12-20T09:42:27;101690.72;;;9.05;100.00
78407;BME280;67692;51.074;-1.790;2023-12-20T09:44:57;101681.97;;;9.07;100.00
78407;BME280;67692;51.074;-1.790;2023-12-20T09:47:27;101675.00;;;9.09;100.00
78407;BME280;67692;51.074;-1.790;2023-12-20T09:49:55;101683.56;;;9.10;100.00
78407;BME280;67692;51.074;-1.790;2023-12-20T09:52:23;101686.97;;;9.12;100.00
78407;BME280;67692;51.074;-1.790;2023-12-20T09:54:52;101685.13;;;9.14;100.00
78407;BME280;67692;51.074;-1.790;2023-12-20T09:57:20;101678.00;;;9.19;100.00
78407;BME280;67692;51.074;-1.790;2023-12-20T09:59:47;101684.75;;;9.21;100.00
78407;BME280;67692;51.074;-1.790;2023-12-20T10:02:13;101672.66;;;9.22;100.00
78407;BME280;67692;51.074;-1.790;2023-12-20T10:04:46;101687.91;;;9.28;100.00
78407;BME280;67692;51.074;-1.790;2023-12-20T10:07:15;101691.25;;;9.30;100.00
78407;BME280;67692;51.074;-1.790;2023-12-20T10:09:42;101693.59;;;9.35;100.00
78407;BME280;67692;51.074;-1.790;2023-12-20T10:12:09;101689.94;;;9.39;100.00
78407;BME280;67692;51.074;-1.790;2023-12-20T10:14:35;101692.63;;;9.37;100.00
78407;BME280;67692;51.074;-1.790;2023-12-20T10:17:02;101703.66;;;9.41;100.00
78407;BME280;67692;51.074;-1.790;2023-12-20T10:19:29;101700.94;;;9.44;100.00
78407;BME280;67692;51.074;-1.790;2023-12-20T10:21:56;101717.97;;;9.48;100.00
78407;BME280;67692;51.074;-1.790;2023-12-20T10:24:25;101706.72;;;9.49;100.00
78407;BME280;67692;51.074;-1.790;2023-12-20T10:27:01;101703.22;;;9.50;99.91
78407;BME280;67692;51.074;-1.790;2023-12-20T10:29:32;101706.44;;;9.55;100.00
78407;BME280;67692;51.074;-1.790;2023-12-20T10:31:58;101699.50;;;9.56;100.00
78407;BME280;67692;51.074;-1.790;2023-12-20T10:34:25;101688.38;;;9.53;100.00
78407;BME280;67692;51.074;-1.790;2023-12-20T10:36:52;101678.88;;;9.54;100.00
78407;BME280;67692;51.074;-1.790;2023-12-20T10:39:19;101670.22;;;9.55;100.00
78407;BME280;67692;51.074;-1.790;2023-12-20T10:41:48;101671.91;;;9.56;100.00
78407;BME280;67692;51.074;-1.790;2023-12-20T10:44:15;101665.09;;;9.53;100.00
78407;BME280;67692;51.074;-1.790;2023-12-20T10:46:42;101670.22;;;9.55;100.00
78407;BME280;67692;51.074;-1.790;2023-12-20T10:49:16;101652.06;;;9.57;100.00
78407;BME280;67692;51.074;-1.790;2023-12-20T10:51:44;101664.91;;;9.58;100.00
78407;BME280;67692;51.074;-1.790;2023-12-20T10:54:12;101651.22;;;9.56;100.00
78407;BME280;67692;51.074;-1.790;2023-12-20T10:56:39;101654.47;;;9.60;100.00
78407;BME280;67692;51.074;-1.790;2023-12-20T10:59:10;101633.56;;;9.64;100.00
78407;BME280;67692;51.074;-1.790;2023-12-20T11:01:38;101626.63;;;9.65;100.00
78407;BME280;67692;51.074;-1.790;2023-12-20T11:04:10;101625.63;;;9.67;100.00
78407;BME280;67692;51.074;-1.790;2023-12-20T11:06:47;101624.59;;;9.71;100.00
78407;BME280;67692;51.074;-1.790;2023-12-20T11:09:20;101631.34;;;9.74;100.00
78407;BME280;67692;51.074;-1.790;2023-12-20T11:11:58;101619.19;;;9.76;99.64
78407;BME280;67692;51.074;-1.790;2023-12-20T11:14:33;101625.13;;;9.78;100.00
78407;BME280;67692;51.074;-1.790;2023-12-20T11:17:07;101627.44;;;9.82;99.97
78407;BME280;67692;51.074;-1.790;2023-12-20T11:19:36;101612.63;;;9.86;100.00
78407;BME280;67692;51.074;-1.790;2023-12-20T11:22:04;101605.63;;;9.88;99.54
78407;BME280;67692;51.074;-1.790;2023-12-20T11:24:31;101598.72;;;9.89;100.00
78407;BME280;67692;51.074;-1.790;2023-12-20T11:27:00;101587.28;;;9.93;99.94
78407;BME280;67692;51.074;-1.790;2023-12-20T11:29:32;101589.88;;;9.93;99.81
78407;BME280;67692;51.074;-1.790;2023-12-20T11:32:01;101582.94;;;9.93;99.33
78407;BME280;67692;51.074;-1.790;2023-12-20T11:34:32;101581.94;;;9.96;99.15
78407;BME280;67692;51.074;-1.790;2023-12-20T11:37:00;101573.13;;;10.00;99.13
78407;BME280;67692;51.074;-1.790;2023-12-20T11:39:27;101578.13;;;10.03;99.71
78407;BME280;67692;51.074;-1.790;2023-12-20T11:41:55;101577.22;;;10.04;99.37
78407;BME280;67692;51.074;-1.790;2023-12-20T11:44:25;101578.03;;;10.04;99.23
78407;BME280;67692;51.074;-1.790;2023-12-20T11:46:54;101559.94;;;10.04;99.53
78407;BME280;67692;51.074;-1.790;2023-12-20T11:49:23;101532.31;;;10.05;98.94
78407;BME280;67692;51.074;-1.790;2023-12-20T11:51:50;101551.41;;;10.02;100.00
78407;BME280;67692;51.074;-1.790;2023-12-20T11:54:17;101544.56;;;10.01;100.00
78407;BME280;67692;51.074;-1.790;2023-12-20T11:56:43;101543.00;;;9.99;100.00
78407;BME280;67692;51.074;-1.790;2023-12-20T11:59:10;101534.31;;;10.00;100.00
78407;BME280;67692;51.074;-1.790;2023-12-20T12:01:37;101523.19;;;9.98;100.00
78407;BME280;67692;51.074;-1.790;2023-12-20T12:04:05;101516.94;;;10.02;100.00
78407;BME280;67692;51.074;-1.790;2023-12-20T12:06:32;101516.69;;;10.06;100.00
78407;BME280;67692;51.074;-1.790;2023-12-20T12:08:59;101512.34;;;10.07;99.37
78407;BME280;67692;51.074;-1.790;2023-12-20T12:11:25;101510.34;;;10.12;98.83
78407;BME280;67692;51.074;-1.790;2023-12-20T12:13:52;101502.53;;;10.13;99.18
78407;BME280;67692;51.074;-1.790;2023-12-20T12:16:20;101504.09;;;10.16;98.03
78407;BME280;67692;51.074;-1.790;2023-12-20T12:18:55;101509.09;;;10.19;99.00
78407;BME280;67692;51.074;-1.790;2023-12-20T12:21:23;101496.88;;;10.23;98.16
78407;BME280;67692;51.074;-1.790;2023-12-20T12:23:49;101493.44;;;10.22;99.05
78407;BME280;67692;51.074;-1.790;2023-12-20T12:26:16;101483.84;;;10.24;99.75
78407;BME280;67692;51.074;-1.790;2023-12-20T12:28:43;101493.03;;;10.30;99.60
78407;BME280;67692;51.074;-1.790;2023-12-20T12:31:14;101482.00;;;10.26;99.08
78407;BME280;67692;51.074;-1.790;2023-12-20T12:33:41;101480.19;;;10.28;98.53
78407;BME280;67692;51.074;-1.790;2023-12-20T12:36:09;101478.50;;;10.27;98.84
78407;BME280;67692;51.074;-1.790;2023-12-20T12:38:38;101472.72;;;10.22;98.69
78407;BME280;67692;51.074;-1.790;2023-12-20T12:41:04;101474.72;;;10.17;98.57
78407;BME280;67692;51.074;-1.790;2023-12-20T12:43:32;101464.13;;;10.22;99.14